createdAt,value
2023-01-03T00:00:56.295Z,1.02
2023-01-03T00:03:22.965Z,1.85
2023-01-03T00:05:50.047Z,1.60
2023-01-03T00:08:16.686Z,1.80
2023-01-03T00:10:44.001Z,1.77
2023-01-03T00:13:10.589Z,1.65
2023-01-03T00:15:38.543Z,2.47
2023-01-03T00:18:05.345Z,2.78
2023-01-03T00:20:34.216Z,1.48
2023-01-03T00:23:02.251Z,2.30
2023-01-03T00:25:29.527Z,2.75
2023-01-03T00:27:56.734Z,1.98
2023-01-03T00:30:23.753Z,2.10
2023-01-03T00:32:50.425Z,1.25
2023-01-03T00:35:17.173Z,2.65
2023-01-03T00:37:43.798Z,2.20
2023-01-03T00:40:11.057Z,1.55
2023-01-03T00:42:57.629Z,1.63
2023-01-03T00:45:25.762Z,1.25
2023-01-03T00:47:53.098Z,2.85
2023-01-03T00:50:20.006Z,2.08
2023-01-03T00:52:46.714Z,2.35
2023-01-03T00:55:13.387Z,1.67
2023-01-03T00:57:39.987Z,1.88
2023-01-03T01:00:07.282Z,1.40
2023-01-03T01:02:34.082Z,1.75
2023-01-03T01:05:00.998Z,1.70
2023-01-03T01:07:28.145Z,1.48
2023-01-03T01:09:54.777Z,1.27
2023-01-03T01:12:21.421Z,2.17
2023-01-03T01:14:48.058Z,1.25
2023-01-03T01:17:22.234Z,1.10
2023-01-03T01:19:49.395Z,1.00
2023-01-03T01:22:16.071Z,1.55
2023-01-03T01:24:42.739Z,1.85
2023-01-03T01:27:09.589Z,2.25
2023-01-03T01:29:38.332Z,1.50
2023-01-03T01:32:05.863Z,1.50
2023-01-03T01:34:33.117Z,1.67
2023-01-03T01:36:59.880Z,1.05
2023-01-03T01:39:28.400Z,1.08
2023-01-03T01:42:19.882Z,1.52
2023-01-03T01:45:15.310Z,1.65
2023-01-03T01:48:00.847Z,1.55
2023-01-03T01:50:49.397Z,1.48
2023-01-03T01:53:23.796Z,2.13
2023-01-03T01:56:11.153Z,2.33
2023-01-03T01:58:41.316Z,3.17
2023-01-03T02:01:14.779Z,1.63
2023-01-03T02:03:43.175Z,2.83
2023-01-03T02:06:13.293Z,1.42
2023-01-03T02:08:39.925Z,3.00
2023-01-03T02:11:09.610Z,2.22
2023-01-03T02:14:10.134Z,1.65
2023-01-03T02:16:58.749Z,1.67
2023-01-03T02:19:47.313Z,4.53
2023-01-03T02:22:32.779Z,2.58
2023-01-03T02:25:25.807Z,3.80
2023-01-03T02:28:11.285Z,2.15
2023-01-03T02:30:46.314Z,1.73
2023-01-03T02:33:37.040Z,1.88
2023-01-03T02:36:23.325Z,3.05
2023-01-03T02:39:01.068Z,3.08
2023-01-03T02:41:41.452Z,2.22
2023-01-03T02:44:31.037Z,2.03
2023-01-03T02:47:12.182Z,4.57
2023-01-03T02:49:43.895Z,2.65
2023-01-03T02:52:15.024Z,2.35
2023-01-03T02:55:14.373Z,3.30
2023-01-03T02:57:49.050Z,2.78
2023-01-03T03:00:20.812Z,2.42
2023-01-03T03:03:02.272Z,2.30
2023-01-03T03:05:34.173Z,1.50
2023-01-03T03:08:01.213Z,2.15
2023-01-03T03:10:47.100Z,1.42
2023-01-03T03:13:43.962Z,2.55
2023-01-03T03:16:45.140Z,2.20
2023-01-03T03:19:44.527Z,2.58
2023-01-03T03:22:55.324Z,5.50
2023-01-03T03:25:24.128Z,1.65
2023-01-03T03:28:14.032Z,2.33
2023-01-03T03:30:43.543Z,1.90
2023-01-03T03:33:13.274Z,2.08
2023-01-03T03:35:47.922Z,2.00
2023-01-03T03:38:22.850Z,2.55
2023-01-03T03:41:23.388Z,1.65
2023-01-03T03:44:16.371Z,3.38
2023-01-03T03:46:54.943Z,1.25
2023-01-03T03:49:40.508Z,1.92
2023-01-03T03:52:12.906Z,1.85
2023-01-03T03:54:43.134Z,1.77
2023-01-03T03:57:22.998Z,1.73
2023-01-03T03:59:55.351Z,3.05
2023-01-03T04:04:55.736Z,3.00
2023-01-03T04:07:22.499Z,1.42
2023-01-03T04:09:49.226Z,3.28
2023-01-03T04:12:15.868Z,1.65
2023-01-03T04:14:42.519Z,2.72
2023-01-03T04:17:10.702Z,1.75
2023-01-03T04:19:37.376Z,1.40
2023-01-03T04:22:04.079Z,2.42
2023-01-03T04:24:30.817Z,1.85
2023-01-03T04:26:57.511Z,2.05
2023-01-03T04:29:24.131Z,1.52
2023-01-03T04:31:50.890Z,1.63
2023-01-03T04:34:17.612Z,1.70
2023-01-03T04:36:44.316Z,3.13
2023-01-03T04:39:11.318Z,1.10
2023-01-03T04:41:38.017Z,1.70
2023-01-03T04:44:04.998Z,2.13
2023-01-03T04:46:34.741Z,3.58
2023-01-03T04:49:02.257Z,2.13
2023-01-03T04:51:29.201Z,2.00
2023-01-03T04:53:56.132Z,1.40
2023-01-03T04:56:28.044Z,2.08
2023-01-03T04:58:55.101Z,2.72
2023-01-03T05:01:22.035Z,1.90
2023-01-03T05:03:49.861Z,2.35
2023-01-03T05:06:16.975Z,2.58
2023-01-03T05:08:47.860Z,2.53
2023-01-03T05:11:14.678Z,2.28
2023-01-03T05:13:42.688Z,2.10
2023-01-03T05:16:12.217Z,4.90
2023-01-03T05:18:39.182Z,1.45
2023-01-03T05:21:35.936Z,1.80
2023-01-03T05:24:21.084Z,3.78
2023-01-03T05:26:48.212Z,2.55
2023-01-03T05:29:18.768Z,2.20
2023-01-03T05:31:46.677Z,2.05
2023-01-03T05:34:14.022Z,2.05
2023-01-03T05:36:41.005Z,4.35
2023-01-03T05:39:08.086Z,3.75
2023-01-03T05:41:53.401Z,3.13
2023-01-03T05:44:20.036Z,3.88
2023-01-03T05:46:46.709Z,2.80
2023-01-03T05:49:13.503Z,3.08
2023-01-03T05:51:40.191Z,2.85
2023-01-03T05:54:07.028Z,4.60
2023-01-03T05:56:34.011Z,5.20
2023-01-03T05:59:00.875Z,2.13
2023-01-03T06:01:28.757Z,3.22
2023-01-03T06:03:55.825Z,4.07
2023-01-03T06:06:22.653Z,2.63
2023-01-03T06:08:49.686Z,2.40
2023-01-03T06:11:17.510Z,2.58
2023-01-03T06:13:44.676Z,1.88
2023-01-03T06:16:35.818Z,2.10
2023-01-03T06:19:03.431Z,3.13
2023-01-03T06:21:30.104Z,1.98
2023-01-03T06:23:56.813Z,3.40
2023-01-03T06:26:26.691Z,3.42
2023-01-03T06:28:53.528Z,3.28
2023-01-03T06:31:20.898Z,2.90
2023-01-03T06:33:48.509Z,2.80
2023-01-03T06:36:18.501Z,2.78
2023-01-03T06:38:45.651Z,3.38
2023-01-03T06:41:13.614Z,3.17
2023-01-03T06:43:40.751Z,3.28
2023-01-03T06:46:26.178Z,3.00
2023-01-03T06:49:11.446Z,2.85
2023-01-03T06:51:56.831Z,3.53
2023-01-03T06:54:24.743Z,2.03
2023-01-03T06:56:52.562Z,6.03
2023-01-03T06:59:20.112Z,4.60
2023-01-03T07:01:48.825Z,4.30
2023-01-03T07:04:15.813Z,3.45
2023-01-03T07:06:42.927Z,3.00
2023-01-03T07:09:11.131Z,4.97
2023-01-03T07:11:39.134Z,3.45
2023-01-03T07:14:07.130Z,6.78
2023-01-03T07:16:43.062Z,3.40
2023-01-03T07:19:18.464Z,3.33
2023-01-03T07:21:45.346Z,4.32
2023-01-03T07:24:14.470Z,4.72
2023-01-03T07:26:41.316Z,4.10
2023-01-03T07:29:09.965Z,4.10
2023-01-03T07:31:40.045Z,7.80
2023-01-03T07:34:07.271Z,4.80
2023-01-03T07:36:34.017Z,6.20
2023-01-03T07:39:00.712Z,5.10
2023-01-03T07:41:47.352Z,7.47
2023-01-03T07:44:14.020Z,5.05
2023-01-03T07:46:40.790Z,10.32
2023-01-03T07:49:11.568Z,10.20
2023-01-03T07:51:38.914Z,7.47
2023-01-03T07:54:05.660Z,7.22
2023-01-03T07:56:32.551Z,9.18
2023-01-03T07:58:59.742Z,7.13
2023-01-03T08:01:26.918Z,8.23
2023-01-03T08:03:53.831Z,6.55
2023-01-03T08:06:22.735Z,8.43
2023-01-03T08:09:09.974Z,6.57
2023-01-03T08:11:55.715Z,8.18
2023-01-03T08:14:26.035Z,7.72
2023-01-03T08:16:53.164Z,7.72
2023-01-03T08:19:19.841Z,10.48
2023-01-03T08:21:46.519Z,7.70
2023-01-03T08:24:13.186Z,6.60
2023-01-03T08:26:39.921Z,6.95
2023-01-03T08:29:07.052Z,7.05
2023-01-03T08:31:39.167Z,9.38
2023-01-03T08:34:15.490Z,7.68
2023-01-03T08:36:48.579Z,6.57
2023-01-03T08:39:20.594Z,6.78
2023-01-03T08:41:54.849Z,6.43
2023-01-03T08:44:21.464Z,6.63
2023-01-03T08:46:51.663Z,5.82
2023-01-03T08:49:19.390Z,5.57
2023-01-03T08:51:46.414Z,5.72
2023-01-03T08:54:13.036Z,5.05
2023-01-03T08:56:40.229Z,5.32
2023-01-03T08:59:07.207Z,5.22
2023-01-03T09:01:34.399Z,4.80
2023-01-03T09:04:01.184Z,5.15
2023-01-03T09:06:27.986Z,5.45
2023-01-03T09:08:54.619Z,5.22
2023-01-03T09:11:21.270Z,7.63
2023-01-03T09:13:47.942Z,5.10
2023-01-03T09:16:16.612Z,4.90
2023-01-03T09:18:43.706Z,7.03
2023-01-03T09:21:10.380Z,5.95
2023-01-03T09:23:37.434Z,4.38
2023-01-03T09:26:05.489Z,7.68
2023-01-03T09:28:32.469Z,4.03
2023-01-03T09:30:59.147Z,8.05
2023-01-03T09:33:25.980Z,5.05
2023-01-03T09:35:54.641Z,4.95
2023-01-03T09:38:22.826Z,5.57
2023-01-03T09:41:03.394Z,8.00
2023-01-03T09:43:37.049Z,5.15
2023-01-03T09:46:05.982Z,3.78
2023-01-03T09:48:41.052Z,4.85
2023-01-03T09:51:34.398Z,5.05
2023-01-03T09:54:19.549Z,4.78
2023-01-03T09:57:04.960Z,3.92
2023-01-03T09:59:54.780Z,4.22
2023-01-03T10:03:16.752Z,3.78
2023-01-03T10:05:51.390Z,4.32
2023-01-03T10:08:25.640Z,4.57
2023-01-03T10:11:12.067Z,3.33
2023-01-03T10:14:20.264Z,4.57
2023-01-03T10:17:05.517Z,4.80
2023-01-03T10:19:50.224Z,6.03
2023-01-03T10:22:20.876Z,4.15
2023-01-03T10:24:48.711Z,4.30
2023-01-03T10:27:22.304Z,3.63
2023-01-03T10:29:53.206Z,4.55
2023-01-03T10:32:52.426Z,4.05
2023-01-03T10:35:25.060Z,2.40
2023-01-03T10:37:53.798Z,4.20
2023-01-03T10:40:21.499Z,3.67
2023-01-03T10:42:50.399Z,2.85
2023-01-03T10:45:20.110Z,2.90
2023-01-03T10:47:59.710Z,3.25
2023-01-03T10:50:28.069Z,3.72
2023-01-03T10:53:04.048Z,2.83
2023-01-03T10:55:34.896Z,3.97
2023-01-03T10:58:04.167Z,3.22
2023-01-03T11:00:37.482Z,3.72
2023-01-03T11:03:10.259Z,4.00
2023-01-03T11:05:39.078Z,4.82
2023-01-03T11:08:15.113Z,3.53
2023-01-03T11:10:52.831Z,3.00
2023-01-03T11:13:37.716Z,3.15
2023-01-03T11:16:14.053Z,3.97
2023-01-03T11:18:42.546Z,3.88
2023-01-03T11:21:37.430Z,4.25
2023-01-03T11:24:28.907Z,2.92
2023-01-03T11:27:32.339Z,2.47
2023-01-03T11:30:03.052Z,2.17
2023-01-03T11:32:51.470Z,2.30
2023-01-03T11:35:51.876Z,3.00
2023-01-03T11:38:40.040Z,2.65
2023-01-03T11:41:21.155Z,5.28
2023-01-03T11:44:00.012Z,2.83
2023-01-03T11:46:38.763Z,3.03
2023-01-03T11:49:18.095Z,2.70
2023-01-03T11:52:22.147Z,2.45
2023-01-03T11:54:53.559Z,2.58
2023-01-03T11:57:46.825Z,1.88
2023-01-03T12:00:44.693Z,4.30
2023-01-03T12:03:50.772Z,2.30
2023-01-03T12:06:36.285Z,3.22
2023-01-03T12:09:27.899Z,2.75
2023-01-03T12:12:16.578Z,3.17
2023-01-03T12:14:49.199Z,4.22
2023-01-03T12:17:36.571Z,6.38
2023-01-03T12:20:11.083Z,9.25
2023-01-03T12:22:43.039Z,3.53
2023-01-03T12:25:18.919Z,4.80
2023-01-03T12:27:54.489Z,3.33
2023-01-03T12:30:58.979Z,3.42
2023-01-03T12:33:46.577Z,6.03
2023-01-03T12:36:31.251Z,3.72
2023-01-03T12:39:03.958Z,3.92
2023-01-03T12:41:36.541Z,3.88
2023-01-03T12:44:29.116Z,4.00
2023-01-03T12:46:56.703Z,3.17
2023-01-03T12:49:35.385Z,1.98
2023-01-03T12:52:02.038Z,3.30
2023-01-03T12:54:39.215Z,3.22
2023-01-03T12:57:42.418Z,2.00
2023-01-03T13:00:17.474Z,1.60
2023-01-03T13:03:01.722Z,2.65
2023-01-03T13:05:34.663Z,2.03
2023-01-03T13:08:26.854Z,1.70
2023-01-03T13:11:00.972Z,1.52
2023-01-03T13:13:28.983Z,2.15
2023-01-03T13:15:56.146Z,2.72
2023-01-03T13:18:22.905Z,2.10
2023-01-03T13:20:51.408Z,5.43
2023-01-03T13:23:53.491Z,3.10
2023-01-03T13:26:24.152Z,4.05
2023-01-03T13:28:51.976Z,1.35
2023-01-03T13:31:18.902Z,1.95
2023-01-03T13:33:48.493Z,1.88
2023-01-03T13:36:18.527Z,4.60
2023-01-03T13:38:45.764Z,2.20
2023-01-03T13:41:36.954Z,2.50
2023-01-03T13:44:23.371Z,1.77
2023-01-03T13:46:51.427Z,1.50
2023-01-03T13:49:25.479Z,1.17
2023-01-03T13:51:54.062Z,2.30
2023-01-03T13:54:20.698Z,1.20
2023-01-03T13:56:50.384Z,2.03
2023-01-03T13:59:42.912Z,3.00
2023-01-03T14:05:15.970Z,1.75
2023-01-03T14:07:48.660Z,2.90
2023-01-03T14:10:34.064Z,2.78
2023-01-03T14:13:25.609Z,1.85
2023-01-03T14:16:19.482Z,2.45
2023-01-03T14:18:53.474Z,1.77
2023-01-03T14:21:26.294Z,1.33
2023-01-03T14:24:00.101Z,2.45
2023-01-03T14:26:31.179Z,2.03
2023-01-03T14:28:58.277Z,1.80
2023-01-03T14:31:28.329Z,4.35
2023-01-03T14:34:01.176Z,2.00
2023-01-03T14:36:28.402Z,2.20
2023-01-03T14:39:00.572Z,2.80
2023-01-03T14:41:35.308Z,2.65
2023-01-03T14:44:03.727Z,2.90
2023-01-03T14:46:32.516Z,2.85
2023-01-03T14:49:03.626Z,3.50
2023-01-03T14:51:35.994Z,3.40
2023-01-03T14:54:05.008Z,3.47
2023-01-03T14:56:32.945Z,3.42
2023-01-03T14:59:00.995Z,3.13
2023-01-03T15:01:28.971Z,5.32
2023-01-03T15:03:56.386Z,4.25
2023-01-03T15:06:24.637Z,4.75
2023-01-03T15:08:53.919Z,5.25
2023-01-03T15:11:29.537Z,4.63
2023-01-03T15:14:05.728Z,5.80
2023-01-03T15:16:37.305Z,4.43
2023-01-03T15:19:14.348Z,5.60
2023-01-03T15:21:42.358Z,5.38
2023-01-03T15:24:21.433Z,4.63
2023-01-03T15:26:53.794Z,6.82
2023-01-03T15:29:25.471Z,4.93
2023-01-03T15:31:55.511Z,6.60
2023-01-03T15:34:34.295Z,6.13
2023-01-03T15:37:23.987Z,7.72
2023-01-03T15:39:55.660Z,6.70
2023-01-03T15:42:47.889Z,5.80
2023-01-03T15:45:27.689Z,7.60
2023-01-03T15:47:58.069Z,7.28
2023-01-03T15:50:35.916Z,8.45
2023-01-03T15:53:02.562Z,7.70
2023-01-03T15:55:29.305Z,7.90
2023-01-03T15:57:56.299Z,7.00
2023-01-03T16:00:24.443Z,13.00
2023-01-03T16:02:51.649Z,8.80
2023-01-03T16:05:22.376Z,11.05
2023-01-03T16:07:50.219Z,11.90
2023-01-03T16:10:17.092Z,7.85
2023-01-03T16:12:44.181Z,8.02
2023-01-03T16:15:19.484Z,8.38
2023-01-03T16:17:46.623Z,9.00
2023-01-03T16:20:15.873Z,9.48
2023-01-03T16:22:57.658Z,12.38
2023-01-03T16:25:27.587Z,9.82
2023-01-03T16:27:54.704Z,8.85
2023-01-03T16:30:21.829Z,10.18
2023-01-03T16:32:48.513Z,13.20
2023-01-03T16:35:17.937Z,14.45
2023-01-03T16:37:44.619Z,12.23
2023-01-03T16:40:15.292Z,15.07
2023-01-03T16:42:41.953Z,11.40
2023-01-03T16:45:09.073Z,12.27
2023-01-03T16:47:36.059Z,12.02
2023-01-03T16:50:06.977Z,13.02
2023-01-03T16:52:37.036Z,12.75
2023-01-03T16:55:32.640Z,13.02
2023-01-03T16:57:59.541Z,14.77
2023-01-03T17:00:29.884Z,14.77
2023-01-03T17:02:59.873Z,7.32
2023-01-03T17:05:36.227Z,5.43
2023-01-03T17:08:12.681Z,7.35
2023-01-03T17:10:41.736Z,7.18
2023-01-03T17:13:38.462Z,8.98
2023-01-03T17:16:11.246Z,8.60
2023-01-03T17:18:41.075Z,7.13
2023-01-03T17:21:23.180Z,8.98
2023-01-03T17:23:53.216Z,9.60
2023-01-03T17:26:22.654Z,7.85
2023-01-03T17:28:51.059Z,8.60
2023-01-03T17:31:25.576Z,8.98
2023-01-03T17:33:52.623Z,11.60
2023-01-03T17:36:28.885Z,9.13
2023-01-03T17:38:59.979Z,15.23
2023-01-03T17:41:27.117Z,12.02
2023-01-03T17:43:54.472Z,13.82
2023-01-03T17:46:44.941Z,15.63
2023-01-03T17:49:25.274Z,13.48
2023-01-03T17:52:00.174Z,18.88
2023-01-03T17:54:30.977Z,28.67
2023-01-03T17:56:59.182Z,26.15
2023-01-03T17:59:26.578Z,24.58
2023-01-03T18:01:54.767Z,20.15
2023-01-03T18:04:22.255Z,24.50
2023-01-03T18:06:57.402Z,15.38
2023-01-03T18:09:26.274Z,13.07
2023-01-03T18:11:54.129Z,12.48
2023-01-03T18:14:21.227Z,13.45
2023-01-03T18:16:54.719Z,13.40
2023-01-03T18:19:21.780Z,11.32
2023-01-03T18:21:49.156Z,10.35
2023-01-03T18:24:21.738Z,10.10
2023-01-03T18:26:53.755Z,11.50
2023-01-03T18:29:20.645Z,14.75
2023-01-03T18:31:48.115Z,13.27
2023-01-03T18:34:15.080Z,13.85
2023-01-03T18:36:45.091Z,14.85
2023-01-03T18:39:16.982Z,14.90
2023-01-03T18:41:44.077Z,16.65
2023-01-03T18:44:20.698Z,15.40
2023-01-03T18:46:47.892Z,16.08
2023-01-03T18:49:14.809Z,14.88
2023-01-03T18:51:42.019Z,18.83
2023-01-03T18:54:15.997Z,14.88
2023-01-03T18:56:43.908Z,14.90
2023-01-03T18:59:26.106Z,11.65
2023-01-03T19:01:54.230Z,10.05
2023-01-03T19:04:21.347Z,9.82
2023-01-03T19:06:51.373Z,9.05
2023-01-03T19:09:24.286Z,12.70
2023-01-03T19:11:52.758Z,20.88
2023-01-03T19:14:19.464Z,18.58
2023-01-03T19:16:46.150Z,17.73
2023-01-03T19:19:12.769Z,16.45
2023-01-03T19:21:41.697Z,18.38
2023-01-03T19:24:14.400Z,20.25
2023-01-03T19:26:52.483Z,16.15
2023-01-03T19:29:22.571Z,19.70
2023-01-03T19:31:51.508Z,15.43
2023-01-03T19:34:21.860Z,12.13
2023-01-03T19:36:48.715Z,8.63
2023-01-03T19:39:17.678Z,12.38
2023-01-03T19:42:11.217Z,35.92
2023-01-03T19:44:37.884Z,35.03
2023-01-03T19:47:04.665Z,14.23
2023-01-03T19:49:31.275Z,13.38
2023-01-03T19:51:58.074Z,10.75
2023-01-03T19:54:24.837Z,15.65
2023-01-03T19:56:56.074Z,15.82
2023-01-03T19:59:34.278Z,14.35
2023-01-03T20:04:50.419Z,17.42
2023-01-03T20:07:17.253Z,17.77
2023-01-03T20:09:43.865Z,15.90
2023-01-03T20:12:15.487Z,15.25
2023-01-03T20:14:47.484Z,20.38
2023-01-03T20:17:25.841Z,19.08
2023-01-03T20:19:53.440Z,21.83
2023-01-03T20:23:02.663Z,17.85
2023-01-03T20:25:20.850Z,15.55
2023-01-03T20:27:48.100Z,15.88
2023-01-03T20:30:17.234Z,17.73
2023-01-03T20:32:44.367Z,20.83
2023-01-03T20:36:08.353Z,19.23
2023-01-03T20:38:06.908Z,25.45
2023-01-03T20:40:33.619Z,24.92
2023-01-03T20:43:02.266Z,24.48
2023-01-03T20:45:29.907Z,28.08
2023-01-03T20:47:56.579Z,21.92
2023-01-03T20:50:26.520Z,23.25
2023-01-03T20:52:54.175Z,25.02
2023-01-03T20:55:25.627Z,33.28
2023-01-03T20:57:52.790Z,33.03
2023-01-03T21:00:30.508Z,23.00
2023-01-03T21:02:57.864Z,21.63
2023-01-03T21:05:24.766Z,18.73
2023-01-03T21:08:10.068Z,19.35
2023-01-03T21:10:39.498Z,20.05
2023-01-03T21:13:06.679Z,20.25
2023-01-03T21:15:34.322Z,17.42
2023-01-03T21:18:01.636Z,15.02
2023-01-03T21:20:29.941Z,15.60
2023-01-03T21:22:56.782Z,15.15
2023-01-03T21:25:27.354Z,12.88
2023-01-03T21:27:54.576Z,14.30
2023-01-03T21:30:23.217Z,16.13
2023-01-03T21:32:50.502Z,16.98
2023-01-03T21:35:22.640Z,14.45
2023-01-03T21:37:50.947Z,13.98
2023-01-03T21:40:28.871Z,60.75
2023-01-03T21:43:04.523Z,44.88
2023-01-03T21:45:33.730Z,46.65
2023-01-03T21:48:02.365Z,42.15
2023-01-03T21:50:30.545Z,93.63
2023-01-03T21:52:57.323Z,105.60
2023-01-03T21:55:24.195Z,110.63
2023-01-03T21:57:51.255Z,92.22
2023-01-03T22:00:19.061Z,71.50
2023-01-03T22:03:04.561Z,61.47
2023-01-03T22:05:31.591Z,47.40
2023-01-03T22:07:59.174Z,72.95
2023-01-03T22:10:26.037Z,42.28
2023-01-03T22:12:56.196Z,36.72
2023-01-03T22:15:24.647Z,41.40
2023-01-03T22:17:52.611Z,68.22
2023-01-03T22:20:22.569Z,57.22
2023-01-03T22:22:49.351Z,25.17
2023-01-03T22:25:20.048Z,40.67
2023-01-03T22:27:46.851Z,32.45
2023-01-03T22:30:17.108Z,39.20
2023-01-03T22:32:44.773Z,55.45
2023-01-03T22:35:13.337Z,71.78
2023-01-03T22:37:40.166Z,37.33
2023-01-03T22:40:10.826Z,42.08
2023-01-03T22:42:37.868Z,36.70
2023-01-03T22:45:06.213Z,39.00
2023-01-03T22:47:34.570Z,27.77
2023-01-03T22:50:01.193Z,42.05
2023-01-03T22:52:27.835Z,23.42
2023-01-03T22:54:54.477Z,40.50
2023-01-03T22:57:21.119Z,30.92
2023-01-03T22:59:48.044Z,29.35
2023-01-03T23:02:14.965Z,31.90
2023-01-03T23:04:41.733Z,20.38
2023-01-03T23:07:08.456Z,19.55
2023-01-03T23:09:35.272Z,34.63
2023-01-03T23:12:20.635Z,17.63
2023-01-03T23:14:47.307Z,21.70
2023-01-03T23:17:32.732Z,27.23
2023-01-03T23:19:59.533Z,55.80
2023-01-03T23:22:27.005Z,29.23
2023-01-03T23:24:53.872Z,29.55
2023-01-03T23:27:20.885Z,14.35
2023-01-03T23:29:47.515Z,15.68
2023-01-03T23:32:14.234Z,11.63
2023-01-03T23:34:40.961Z,16.60
2023-01-03T23:37:07.793Z,22.08
2023-01-03T23:39:35.296Z,45.45
2023-01-03T23:42:02.027Z,22.08
2023-01-03T23:44:29.693Z,25.33
2023-01-03T23:46:56.495Z,36.25
2023-01-03T23:49:23.113Z,40.13
2023-01-03T23:51:49.924Z,27.17
2023-01-03T23:54:16.616Z,35.28
2023-01-03T23:56:43.391Z,31.83
2023-01-03T23:59:10.415Z,31.33
